createdAt,value
2023-03-23T15:58:30.614Z,54.47
2023-03-23T16:01:02.103Z,55.11
2023-03-23T16:03:37.003Z,55.20
2023-03-23T16:06:05.458Z,55.63
2023-03-23T16:08:41.062Z,55.50
2023-03-23T16:11:10.961Z,55.85
2023-03-23T16:13:39.144Z,56.33
2023-03-23T16:16:13.951Z,55.92
2023-03-23T16:18:41.881Z,56.09
2023-03-23T16:21:10.610Z,56.29
2023-03-23T16:23:40.869Z,56.24
2023-03-23T16:26:08.801Z,56.56
2023-03-23T16:31:04.880Z,56.91
2023-03-23T16:33:32.852Z,57.23
2023-03-23T16:36:01.323Z,57.25
2023-03-23T16:38:29.429Z,56.67
2023-03-23T16:40:58.750Z,56.66
2023-03-23T16:43:26.651Z,57.21
2023-03-23T16:45:57.562Z,56.73
2023-03-23T16:48:26.680Z,56.73
2023-03-23T16:50:55.442Z,56.69
2023-03-23T16:53:24.792Z,56.88
2023-03-23T16:55:53.944Z,57.02
2023-03-23T16:58:27.194Z,56.67
2023-03-23T17:00:55.094Z,57.23
2023-03-23T17:03:23.547Z,58.16
2023-03-23T17:05:53.021Z,58.79
2023-03-23T17:08:22.000Z,60.16
2023-03-23T17:10:50.533Z,60.05
2023-03-23T17:13:18.866Z,59.71
2023-03-23T17:15:48.468Z,59.32
2023-03-23T17:18:17.130Z,60.27
2023-03-23T17:20:45.361Z,61.53
2023-03-23T17:23:14.127Z,61.67
2023-03-23T17:25:43.278Z,62.19
2023-03-23T17:28:11.470Z,62.66
2023-03-23T17:30:42.296Z,61.86
2023-03-23T17:33:12.809Z,60.63
2023-03-23T17:35:40.895Z,60.22
2023-03-23T17:38:08.882Z,61.24
2023-03-23T17:40:36.864Z,61.76
2023-03-23T17:43:05.241Z,61.00
2023-03-23T17:45:33.152Z,62.42
2023-03-23T17:48:01.247Z,62.17
2023-03-23T17:50:30.605Z,62.08
2023-03-23T17:52:58.525Z,62.92
2023-03-23T17:55:26.414Z,64.59
2023-03-23T17:57:54.356Z,65.81
2023-03-23T18:00:23.052Z,65.86
2023-03-23T18:02:51.061Z,66.52
2023-03-23T18:05:19.038Z,68.43
2023-03-23T18:07:48.314Z,68.33
2023-03-23T18:10:17.135Z,68.10
2023-03-23T18:12:45.050Z,68.19
2023-03-23T18:15:13.369Z,68.38
2023-03-23T18:17:42.347Z,68.71
2023-03-23T18:20:10.559Z,68.52
2023-03-23T18:22:38.479Z,68.28
2023-03-23T18:25:08.115Z,66.91
2023-03-23T18:27:36.716Z,65.23
2023-03-23T18:30:05.627Z,65.54
2023-03-23T18:32:36.094Z,65.33
2023-03-23T18:35:04.826Z,63.86
2023-03-23T18:37:32.954Z,64.12
2023-03-23T18:40:00.966Z,64.20
2023-03-23T18:42:30.455Z,64.23
2023-03-23T18:44:59.964Z,64.09
2023-03-23T18:47:28.252Z,63.84
2023-03-23T18:49:56.822Z,63.88
2023-03-23T18:52:26.478Z,64.14
2023-03-23T18:54:54.912Z,64.49
2023-03-23T18:57:23.615Z,64.52
2023-03-23T18:59:53.247Z,65.01
2023-03-23T19:02:22.246Z,64.70
2023-03-23T19:04:51.630Z,64.22
2023-03-23T19:07:20.442Z,64.19
2023-03-23T19:09:48.415Z,63.79
2023-03-23T19:12:16.772Z,64.58
2023-03-23T19:14:44.922Z,64.40
2023-03-23T19:17:14.268Z,64.44
2023-03-23T19:19:43.265Z,64.59
2023-03-23T19:22:13.435Z,64.71
2023-03-23T19:24:41.392Z,64.53
2023-03-23T19:27:09.490Z,64.65
2023-03-23T19:29:37.467Z,64.62
2023-03-23T19:32:06.457Z,64.98
2023-03-23T19:34:36.193Z,65.22
2023-03-23T19:37:06.270Z,65.11
2023-03-23T19:39:36.464Z,64.79
2023-03-23T19:42:04.953Z,65.07
2023-03-23T19:44:33.279Z,64.85
2023-03-23T19:47:02.122Z,64.50
2023-03-23T19:49:30.174Z,64.47
2023-03-23T19:52:06.431Z,64.57
2023-03-23T19:54:37.268Z,64.96
2023-03-23T19:57:05.517Z,64.58
2023-03-23T19:59:33.693Z,64.25
2023-03-23T20:02:02.306Z,63.74
2023-03-23T20:04:30.575Z,63.47
2023-03-23T20:07:00.620Z,64.25
2023-03-23T20:09:30.648Z,63.64
2023-03-23T20:11:59.083Z,63.49
2023-03-23T20:14:27.166Z,63.54
2023-03-23T20:16:55.338Z,63.15
2023-03-23T20:19:23.656Z,63.11
2023-03-23T20:21:52.322Z,62.90
2023-03-23T20:24:21.707Z,63.38
2023-03-23T20:26:49.771Z,63.21
2023-03-23T20:29:17.669Z,62.83
2023-03-23T20:31:46.548Z,63.20
2023-03-23T20:34:30.555Z,63.26
2023-03-23T20:37:00.248Z,63.49
2023-03-23T20:39:31.974Z,63.10
2023-03-23T20:42:03.151Z,63.43
2023-03-23T20:44:34.764Z,62.97
2023-03-23T20:47:06.988Z,63.26
2023-03-23T20:49:37.242Z,63.07
2023-03-23T20:52:08.311Z,63.52
2023-03-23T20:54:38.053Z,62.84
2023-03-23T20:57:06.055Z,63.33
2023-03-23T20:59:34.049Z,63.24
2023-03-23T21:02:08.767Z,63.11
2023-03-23T21:05:40.280Z,63.01
2023-03-23T21:08:08.551Z,62.97
2023-03-23T21:10:39.206Z,63.32
2023-03-23T21:13:07.785Z,63.16
2023-03-23T21:15:37.427Z,62.74
2023-03-23T21:18:05.971Z,63.23
2023-03-23T21:20:35.000Z,63.27
2023-03-23T21:23:05.987Z,62.78
2023-03-23T21:25:36.879Z,62.58
2023-03-23T21:28:08.838Z,62.59
2023-03-23T21:30:36.755Z,62.82
2023-03-23T21:33:07.063Z,62.76
2023-03-23T21:35:38.423Z,62.78
2023-03-23T21:38:06.692Z,62.29
2023-03-23T21:40:34.711Z,62.32
2023-03-23T21:43:02.882Z,62.51
2023-03-23T21:45:49.991Z,62.38
2023-03-23T21:48:28.062Z,63.26
2023-03-23T21:54:54.498Z,62.73
2023-03-23T21:57:38.527Z,62.83
2023-03-23T22:00:29.178Z,62.83
2023-03-23T22:02:58.745Z,63.36
2023-03-23T22:05:27.386Z,63.05
2023-03-23T22:07:59.410Z,62.65
2023-03-23T22:10:27.636Z,62.53
2023-03-23T22:12:56.277Z,62.44
2023-03-23T22:15:27.941Z,62.39
2023-03-23T22:17:56.548Z,62.69
2023-03-23T22:20:26.780Z,62.38
2023-03-23T22:22:54.838Z,62.39
2023-03-23T22:25:22.859Z,62.50
2023-03-23T22:27:51.044Z,62.63
2023-03-23T22:30:19.037Z,63.07
2023-03-23T22:32:47.079Z,62.71
2023-03-23T22:35:15.120Z,62.49
2023-03-23T22:37:44.529Z,62.44
2023-03-23T22:40:13.197Z,62.47
2023-03-23T22:42:41.358Z,62.72
2023-03-23T22:45:10.191Z,62.51
2023-03-23T22:47:39.265Z,62.79
2023-03-23T22:50:08.264Z,62.64
2023-03-23T22:52:37.451Z,62.78
2023-03-23T22:55:09.273Z,62.80
2023-03-23T22:57:37.257Z,61.98
2023-03-23T23:00:14.105Z,61.94
2023-03-23T23:02:42.480Z,62.22
2023-03-23T23:05:10.644Z,62.15
2023-03-23T23:07:39.423Z,62.05
2023-03-23T23:10:09.990Z,61.85
2023-03-23T23:12:37.989Z,62.01
2023-03-23T23:15:08.107Z,62.69
2023-03-23T23:17:38.441Z,62.78
2023-03-23T23:20:07.843Z,62.75
2023-03-23T23:22:35.873Z,62.93
2023-03-23T23:25:04.373Z,63.11
2023-03-23T23:27:34.598Z,62.80
2023-03-23T23:30:03.648Z,63.11
2023-03-23T23:32:32.283Z,62.90
2023-03-23T23:35:00.593Z,62.90
2023-03-23T23:37:28.596Z,62.83
2023-03-23T23:39:56.714Z,62.72
2023-03-23T23:42:25.701Z,63.16
2023-03-23T23:44:55.141Z,62.78
2023-03-23T23:47:23.161Z,63.00
2023-03-23T23:49:51.105Z,63.54
2023-03-23T23:52:19.499Z,64.18
2023-03-23T23:54:48.224Z,64.25
2023-03-23T23:57:16.941Z,64.50
2023-03-23T23:59:44.996Z,65.21
